sensor_id;sensor_type;location;lat;lon;timestamp;P1;durP1;ratioP1;P2;durP2;ratioP2
37517;SDS011;23366;52.498;13.446;2023-05-10T00:02:21;5.40;;;3.10;;
37517;SDS011;23366;52.498;13.446;2023-05-10T00:04:55;6.03;;;3.58;;
37517;SDS011;23366;52.498;13.446;2023-05-10T00:07:30;6.40;;;3.42;;
37517;SDS011;23366;52.498;13.446;2023-05-10T00:09:55;7.32;;;3.47;;
37517;SDS011;23366;52.498;13.446;2023-05-10T00:12:41;5.82;;;3.40;;
37517;SDS011;23366;52.498;13.446;2023-05-10T00:15:09;3.35;;;2.97;;
37517;SDS011;23366;52.498;13.446;2023-05-10T00:17:35;4.30;;;3.20;;
37517;SDS011;23366;52.498;13.446;2023-05-10T00:20:01;4.95;;;3.60;;
37517;SDS011;23366;52.498;13.446;2023-05-10T00:22:26;7.80;;;4.20;;
37517;SDS011;23366;52.498;13.446;2023-05-10T00:24:52;6.72;;;3.72;;
37517;SDS011;23366;52.498;13.446;2023-05-10T00:27:17;4.40;;;2.50;;
37517;SDS011;23366;52.498;13.446;2023-05-10T00:29:43;6.40;;;3.75;;
37517;SDS011;23366;52.498;13.446;2023-05-10T00:32:08;7.68;;;3.55;;
37517;SDS011;23366;52.498;13.446;2023-05-10T00:34:34;6.18;;;3.58;;
37517;SDS011;23366;52.498;13.446;2023-05-10T00:36:59;6.75;;;3.45;;
37517;SDS011;23366;52.498;13.446;2023-05-10T00:39:25;9.05;;;3.33;;
37517;SDS011;23366;52.498;13.446;2023-05-10T00:41:51;5.53;;;3.67;;
37517;SDS011;23366;52.498;13.446;2023-05-10T00:44:17;6.38;;;3.75;;
37517;SDS011;23366;52.498;13.446;2023-05-10T00:46:43;9.20;;;3.45;;
37517;SDS011;23366;52.498;13.446;2023-05-10T00:49:09;12.75;;;4.90;;
37517;SDS011;23366;52.498;13.446;2023-05-10T00:51:35;4.43;;;2.85;;
37517;SDS011;23366;52.498;13.446;2023-05-10T00:54:01;7.60;;;3.47;;
37517;SDS011;23366;52.498;13.446;2023-05-10T00:56:27;5.50;;;3.55;;
37517;SDS011;23366;52.498;13.446;2023-05-10T00:58:54;5.38;;;3.40;;
37517;SDS011;23366;52.498;13.446;2023-05-10T01:01:20;6.38;;;4.10;;
37517;SDS011;23366;52.498;13.446;2023-05-10T01:03:46;5.55;;;3.63;;
37517;SDS011;23366;52.498;13.446;2023-05-10T01:06:12;8.40;;;3.63;;
37517;SDS011;23366;52.498;13.446;2023-05-10T01:08:37;5.60;;;2.60;;
37517;SDS011;23366;52.498;13.446;2023-05-10T01:11:04;7.05;;;3.03;;
37517;SDS011;23366;52.498;13.446;2023-05-10T01:15:58;4.47;;;3.28;;
37517;SDS011;23366;52.498;13.446;2023-05-10T01:18:24;7.15;;;4.30;;
37517;SDS011;23366;52.498;13.446;2023-05-10T01:20:55;7.05;;;4.03;;
37517;SDS011;23366;52.498;13.446;2023-05-10T01:23:42;7.57;;;3.75;;
37517;SDS011;23366;52.498;13.446;2023-05-10T01:26:26;6.10;;;3.22;;
37517;SDS011;23366;52.498;13.446;2023-05-10T01:29:19;5.93;;;3.38;;
37517;SDS011;23366;52.498;13.446;2023-05-10T01:32:03;5.50;;;3.85;;
37517;SDS011;23366;52.498;13.446;2023-05-10T01:34:42;4.15;;;3.03;;
37517;SDS011;23366;52.498;13.446;2023-05-10T01:37:41;5.40;;;3.03;;
37517;SDS011;23366;52.498;13.446;2023-05-10T01:40:19;5.00;;;2.80;;
37517;SDS011;23366;52.498;13.446;2023-05-10T01:42:55;6.82;;;3.67;;
37517;SDS011;23366;52.498;13.446;2023-05-10T01:45:31;8.10;;;3.58;;
37517;SDS011;23366;52.498;13.446;2023-05-10T01:48:05;4.90;;;3.22;;
37517;SDS011;23366;52.498;13.446;2023-05-10T01:50:36;5.93;;;3.55;;
37517;SDS011;23366;52.498;13.446;2023-05-10T01:53:06;6.47;;;3.22;;
37517;SDS011;23366;52.498;13.446;2023-05-10T01:55:35;5.10;;;3.28;;
37517;SDS011;23366;52.498;13.446;2023-05-10T01:58:13;8.05;;;4.22;;
37517;SDS011;23366;52.498;13.446;2023-05-10T02:00:42;3.78;;;2.88;;
37517;SDS011;23366;52.498;13.446;2023-05-10T02:03:09;3.42;;;2.88;;
37517;SDS011;23366;52.498;13.446;2023-05-10T02:05:36;7.55;;;3.63;;
37517;SDS011;23366;52.498;13.446;2023-05-10T02:08:03;5.93;;;2.85;;
37517;SDS011;23366;52.498;13.446;2023-05-10T02:10:31;5.60;;;3.72;;
37517;SDS011;23366;52.498;13.446;2023-05-10T02:12:58;7.53;;;3.67;;
37517;SDS011;23366;52.498;13.446;2023-05-10T02:15:25;6.70;;;3.53;;
37517;SDS011;23366;52.498;13.446;2023-05-10T02:17:52;5.07;;;3.53;;
37517;SDS011;23366;52.498;13.446;2023-05-10T02:20:20;7.40;;;3.45;;
37517;SDS011;23366;52.498;13.446;2023-05-10T02:22:49;5.65;;;3.60;;
37517;SDS011;23366;52.498;13.446;2023-05-10T02:25:16;3.30;;;2.85;;
37517;SDS011;23366;52.498;13.446;2023-05-10T02:27:44;7.78;;;3.83;;
37517;SDS011;23366;52.498;13.446;2023-05-10T02:30:10;7.30;;;4.63;;
37517;SDS011;23366;52.498;13.446;2023-05-10T02:32:37;7.72;;;4.18;;
37517;SDS011;23366;52.498;13.446;2023-05-10T02:35:03;6.25;;;3.33;;
37517;SDS011;23366;52.498;13.446;2023-05-10T02:37:30;5.18;;;3.00;;
37517;SDS011;23366;52.498;13.446;2023-05-10T02:39:57;7.35;;;4.00;;
37517;SDS011;23366;52.498;13.446;2023-05-10T02:42:24;5.57;;;2.97;;
37517;SDS011;23366;52.498;13.446;2023-05-10T02:44:52;4.78;;;3.38;;
37517;SDS011;23366;52.498;13.446;2023-05-10T02:47:22;5.00;;;3.38;;
37517;SDS011;23366;52.498;13.446;2023-05-10T02:49:47;5.75;;;3.13;;
37517;SDS011;23366;52.498;13.446;2023-05-10T02:52:14;4.60;;;2.97;;
37517;SDS011;23366;52.498;13.446;2023-05-10T02:54:44;6.80;;;3.30;;
37517;SDS011;23366;52.498;13.446;2023-05-10T02:57:16;6.03;;;4.13;;
37517;SDS011;23366;52.498;13.446;2023-05-10T02:59:47;5.30;;;3.50;;
37517;SDS011;23366;52.498;13.446;2023-05-10T03:02:12;5.28;;;3.30;;
37517;SDS011;23366;52.498;13.446;2023-05-10T03:04:38;5.45;;;3.15;;
37517;SDS011;23366;52.498;13.446;2023-05-10T03:07:04;7.43;;;3.17;;
37517;SDS011;23366;52.498;13.446;2023-05-10T03:09:30;4.38;;;2.90;;
37517;SDS011;23366;52.498;13.446;2023-05-10T03:12:01;4.03;;;2.55;;
37517;SDS011;23366;52.498;13.446;2023-05-10T03:14:57;4.38;;;3.03;;
37517;SDS011;23366;52.498;13.446;2023-05-10T03:17:35;4.97;;;3.22;;
37517;SDS011;23366;52.498;13.446;2023-05-10T03:20:12;5.55;;;3.40;;
37517;SDS011;23366;52.498;13.446;2023-05-10T03:22:51;9.73;;;3.78;;
37517;SDS011;23366;52.498;13.446;2023-05-10T03:25:33;3.83;;;2.72;;
37517;SDS011;23366;52.498;13.446;2023-05-10T03:28:00;4.15;;;3.30;;
37517;SDS011;23366;52.498;13.446;2023-05-10T03:30:26;4.07;;;2.70;;
37517;SDS011;23366;52.498;13.446;2023-05-10T03:32:52;4.40;;;3.10;;
37517;SDS011;23366;52.498;13.446;2023-05-10T03:35:18;4.97;;;3.15;;
37517;SDS011;23366;52.498;13.446;2023-05-10T03:37:43;5.70;;;3.92;;
37517;SDS011;23366;52.498;13.446;2023-05-10T03:40:09;5.18;;;3.03;;
37517;SDS011;23366;52.498;13.446;2023-05-10T03:42:34;3.47;;;2.67;;
37517;SDS011;23366;52.498;13.446;2023-05-10T03:45:00;5.53;;;3.55;;
37517;SDS011;23366;52.498;13.446;2023-05-10T03:47:26;5.97;;;4.07;;
37517;SDS011;23366;52.498;13.446;2023-05-10T03:49:51;5.72;;;3.13;;
37517;SDS011;23366;52.498;13.446;2023-05-10T03:52:17;4.55;;;2.88;;
37517;SDS011;23366;52.498;13.446;2023-05-10T03:54:43;6.28;;;3.22;;
37517;SDS011;23366;52.498;13.446;2023-05-10T03:57:08;5.40;;;2.60;;
37517;SDS011;23366;52.498;13.446;2023-05-10T03:59:34;5.45;;;2.78;;
37517;SDS011;23366;52.498;13.446;2023-05-10T04:02:00;4.28;;;3.13;;
37517;SDS011;23366;52.498;13.446;2023-05-10T04:04:25;4.28;;;2.92;;
37517;SDS011;23366;52.498;13.446;2023-05-10T04:06:51;6.43;;;3.92;;
37517;SDS011;23366;52.498;13.446;2023-05-10T04:09:16;6.78;;;3.30;;
37517;SDS011;23366;52.498;13.446;2023-05-10T04:11:42;5.15;;;3.17;;
37517;SDS011;23366;52.498;13.446;2023-05-10T04:14:08;8.18;;;3.35;;
37517;SDS011;23366;52.498;13.446;2023-05-10T04:16:33;4.63;;;2.90;;
37517;SDS011;23366;52.498;13.446;2023-05-10T04:18:59;5.97;;;2.95;;
37517;SDS011;23366;52.498;13.446;2023-05-10T04:21:24;5.28;;;3.03;;
37517;SDS011;23366;52.498;13.446;2023-05-10T04:23:50;4.53;;;3.17;;
37517;SDS011;23366;52.498;13.446;2023-05-10T04:26:16;7.32;;;3.00;;
37517;SDS011;23366;52.498;13.446;2023-05-10T04:28:41;8.35;;;4.00;;
37517;SDS011;23366;52.498;13.446;2023-05-10T04:31:07;4.25;;;2.88;;
37517;SDS011;23366;52.498;13.446;2023-05-10T04:33:34;4.72;;;3.13;;
37517;SDS011;23366;52.498;13.446;2023-05-10T04:36:00;7.80;;;3.05;;
37517;SDS011;23366;52.498;13.446;2023-05-10T04:38:26;4.32;;;2.92;;
37517;SDS011;23366;52.498;13.446;2023-05-10T04:41:07;3.88;;;2.85;;
37517;SDS011;23366;52.498;13.446;2023-05-10T04:43:43;5.25;;;2.38;;
37517;SDS011;23366;52.498;13.446;2023-05-10T04:46:13;4.63;;;2.77;;
37517;SDS011;23366;52.498;13.446;2023-05-10T04:48:44;6.65;;;2.70;;
37517;SDS011;23366;52.498;13.446;2023-05-10T04:51:37;3.38;;;2.40;;
37517;SDS011;23366;52.498;13.446;2023-05-10T04:54:08;6.68;;;2.78;;
37517;SDS011;23366;52.498;13.446;2023-05-10T04:56:48;5.15;;;2.85;;
37517;SDS011;23366;52.498;13.446;2023-05-10T04:59:39;5.80;;;2.38;;
37517;SDS011;23366;52.498;13.446;2023-05-10T05:02:05;3.60;;;2.30;;
37517;SDS011;23366;52.498;13.446;2023-05-10T05:04:31;4.63;;;2.58;;
37517;SDS011;23366;52.498;13.446;2023-05-10T05:06:56;4.53;;;2.25;;
37517;SDS011;23366;52.498;13.446;2023-05-10T05:09:22;4.20;;;2.78;;
37517;SDS011;23366;52.498;13.446;2023-05-10T05:11:47;4.43;;;2.30;;
37517;SDS011;23366;52.498;13.446;2023-05-10T05:14:13;6.32;;;3.90;;
37517;SDS011;23366;52.498;13.446;2023-05-10T05:16:39;3.25;;;1.92;;
37517;SDS011;23366;52.498;13.446;2023-05-10T05:19:04;2.33;;;1.67;;
37517;SDS011;23366;52.498;13.446;2023-05-10T05:21:30;4.13;;;1.75;;
37517;SDS011;23366;52.498;13.446;2023-05-10T05:23:57;5.53;;;2.25;;
37517;SDS011;23366;52.498;13.446;2023-05-10T05:26:22;2.88;;;2.00;;
37517;SDS011;23366;52.498;13.446;2023-05-10T05:28:48;6.65;;;2.47;;
37517;SDS011;23366;52.498;13.446;2023-05-10T05:31:14;1.95;;;1.55;;
37517;SDS011;23366;52.498;13.446;2023-05-10T05:33:40;4.38;;;1.63;;
37517;SDS011;23366;52.498;13.446;2023-05-10T05:36:05;3.55;;;1.85;;
37517;SDS011;23366;52.498;13.446;2023-05-10T05:38:31;3.13;;;2.17;;
37517;SDS011;23366;52.498;13.446;2023-05-10T05:40:57;3.83;;;2.13;;
37517;SDS011;23366;52.498;13.446;2023-05-10T05:43:22;1.80;;;1.60;;
37517;SDS011;23366;52.498;13.446;2023-05-10T05:45:48;2.33;;;1.60;;
37517;SDS011;23366;52.498;13.446;2023-05-10T05:48:13;1.80;;;1.17;;
37517;SDS011;23366;52.498;13.446;2023-05-10T05:50:39;2.25;;;1.40;;
37517;SDS011;23366;52.498;13.446;2023-05-10T05:53:04;3.30;;;1.35;;
37517;SDS011;23366;52.498;13.446;2023-05-10T05:55:30;3.92;;;1.85;;
37517;SDS011;23366;52.498;13.446;2023-05-10T05:57:56;2.10;;;1.23;;
37517;SDS011;23366;52.498;13.446;2023-05-10T06:00:22;2.10;;;1.42;;
37517;SDS011;23366;52.498;13.446;2023-05-10T06:02:48;2.72;;;1.70;;
37517;SDS011;23366;52.498;13.446;2023-05-10T06:05:13;4.60;;;1.05;;
37517;SDS011;23366;52.498;13.446;2023-05-10T06:07:39;2.25;;;1.92;;
37517;SDS011;23366;52.498;13.446;2023-05-10T06:10:07;1.98;;;1.30;;
37517;SDS011;23366;52.498;13.446;2023-05-10T06:12:33;1.98;;;1.15;;
37517;SDS011;23366;52.498;13.446;2023-05-10T06:14:59;2.17;;;1.30;;
37517;SDS011;23366;52.498;13.446;2023-05-10T06:17:24;1.63;;;1.25;;
37517;SDS011;23366;52.498;13.446;2023-05-10T06:19:50;6.15;;;1.42;;
37517;SDS011;23366;52.498;13.446;2023-05-10T06:22:15;3.28;;;1.67;;
37517;SDS011;23366;52.498;13.446;2023-05-10T06:24:41;6.15;;;1.50;;
37517;SDS011;23366;52.498;13.446;2023-05-10T06:27:06;2.65;;;1.65;;
37517;SDS011;23366;52.498;13.446;2023-05-10T06:29:32;9.10;;;1.50;;
37517;SDS011;23366;52.498;13.446;2023-05-10T06:31:57;6.03;;;1.83;;
37517;SDS011;23366;52.498;13.446;2023-05-10T06:34:23;2.55;;;1.50;;
37517;SDS011;23366;52.498;13.446;2023-05-10T06:36:49;3.22;;;1.30;;
37517;SDS011;23366;52.498;13.446;2023-05-10T06:39:14;1.42;;;0.90;;
37517;SDS011;23366;52.498;13.446;2023-05-10T06:41:40;3.15;;;1.55;;
37517;SDS011;23366;52.498;13.446;2023-05-10T06:44:06;2.13;;;0.88;;
37517;SDS011;23366;52.498;13.446;2023-05-10T06:46:31;2.50;;;1.40;;
37517;SDS011;23366;52.498;13.446;2023-05-10T06:48:57;1.90;;;1.13;;
37517;SDS011;23366;52.498;13.446;2023-05-10T06:51:22;4.22;;;1.33;;
37517;SDS011;23366;52.498;13.446;2023-05-10T06:53:48;2.85;;;1.75;;
37517;SDS011;23366;52.498;13.446;2023-05-10T06:56:13;2.22;;;1.27;;
37517;SDS011;23366;52.498;13.446;2023-05-10T06:58:39;3.88;;;1.17;;
37517;SDS011;23366;52.498;13.446;2023-05-10T07:01:04;4.45;;;2.08;;
37517;SDS011;23366;52.498;13.446;2023-05-10T07:03:30;1.42;;;1.02;;
37517;SDS011;23366;52.498;13.446;2023-05-10T07:06:00;1.55;;;0.98;;
37517;SDS011;23366;52.498;13.446;2023-05-10T07:08:27;1.55;;;1.20;;
37517;SDS011;23366;52.498;13.446;2023-05-10T07:10:58;2.20;;;1.20;;
37517;SDS011;23366;52.498;13.446;2023-05-10T07:13:25;1.50;;;1.00;;
37517;SDS011;23366;52.498;13.446;2023-05-10T07:15:50;1.27;;;0.98;;
37517;SDS011;23366;52.498;13.446;2023-05-10T07:18:16;1.88;;;1.20;;
37517;SDS011;23366;52.498;13.446;2023-05-10T07:20:41;1.10;;;0.80;;
37517;SDS011;23366;52.498;13.446;2023-05-10T07:23:07;1.45;;;0.73;;
37517;SDS011;23366;52.498;13.446;2023-05-10T07:25:32;1.70;;;0.82;;
37517;SDS011;23366;52.498;13.446;2023-05-10T07:27:58;1.60;;;1.23;;
37517;SDS011;23366;52.498;13.446;2023-05-10T07:30:23;0.65;;;0.60;;
37517;SDS011;23366;52.498;13.446;2023-05-10T07:32:49;6.28;;;1.73;;
37517;SDS011;23366;52.498;13.446;2023-05-10T07:35:14;2.05;;;1.40;;
37517;SDS011;23366;52.498;13.446;2023-05-10T07:37:40;3.90;;;1.73;;
37517;SDS011;23366;52.498;13.446;2023-05-10T07:40:05;1.40;;;0.80;;
37517;SDS011;23366;52.498;13.446;2023-05-10T07:42:31;3.40;;;0.88;;
37517;SDS011;23366;52.498;13.446;2023-05-10T07:44:57;3.05;;;1.20;;
37517;SDS011;23366;52.498;13.446;2023-05-10T07:47:22;2.15;;;0.80;;
37517;SDS011;23366;52.498;13.446;2023-05-10T07:49:48;1.50;;;0.93;;
37517;SDS011;23366;52.498;13.446;2023-05-10T07:52:13;4.00;;;0.85;;
37517;SDS011;23366;52.498;13.446;2023-05-10T07:54:39;4.50;;;1.15;;
37517;SDS011;23366;52.498;13.446;2023-05-10T07:57:04;1.08;;;0.90;;
37517;SDS011;23366;52.498;13.446;2023-05-10T07:59:30;1.73;;;0.80;;
37517;SDS011;23366;52.498;13.446;2023-05-10T08:01:55;1.27;;;0.88;;
37517;SDS011;23366;52.498;13.446;2023-05-10T08:04:21;0.95;;;0.63;;
37517;SDS011;23366;52.498;13.446;2023-05-10T08:06:47;3.22;;;0.80;;
37517;SDS011;23366;52.498;13.446;2023-05-10T08:09:12;0.98;;;0.80;;
37517;SDS011;23366;52.498;13.446;2023-05-10T08:11:38;1.65;;;0.90;;
37517;SDS011;23366;52.498;13.446;2023-05-10T08:14:03;1.00;;;0.80;;
37517;SDS011;23366;52.498;13.446;2023-05-10T08:16:29;2.50;;;0.93;;
37517;SDS011;23366;52.498;13.446;2023-05-10T08:18:54;1.58;;;1.17;;
37517;SDS011;23366;52.498;13.446;2023-05-10T08:21:20;1.40;;;0.95;;
37517;SDS011;23366;52.498;13.446;2023-05-10T08:23:45;2.20;;;1.00;;
37517;SDS011;23366;52.498;13.446;2023-05-10T08:26:11;0.73;;;0.55;;
37517;SDS011;23366;52.498;13.446;2023-05-10T08:28:37;3.03;;;1.38;;
37517;SDS011;23366;52.498;13.446;2023-05-10T08:31:04;1.63;;;0.93;;
37517;SDS011;23366;52.498;13.446;2023-05-10T08:33:30;1.70;;;0.95;;
37517;SDS011;23366;52.498;13.446;2023-05-10T08:35:55;4.05;;;0.80;;
37517;SDS011;23366;52.498;13.446;2023-05-10T08:38:21;1.70;;;1.33;;
37517;SDS011;23366;52.498;13.446;2023-05-10T08:40:46;1.55;;;0.98;;
37517;SDS011;23366;52.498;13.446;2023-05-10T08:43:14;1.30;;;0.93;;
37517;SDS011;23366;52.498;13.446;2023-05-10T08:45:41;3.40;;;1.10;;
37517;SDS011;23366;52.498;13.446;2023-05-10T08:48:08;1.40;;;0.95;;
37517;SDS011;23366;52.498;13.446;2023-05-10T08:50:38;9.15;;;1.27;;
37517;SDS011;23366;52.498;13.446;2023-05-10T08:53:11;1.15;;;0.88;;
37517;SDS011;23366;52.498;13.446;2023-05-10T08:55:38;2.47;;;1.05;;
37517;SDS011;23366;52.498;13.446;2023-05-10T08:58:05;1.25;;;1.00;;
37517;SDS011;23366;52.498;13.446;2023-05-10T09:00:31;2.47;;;0.95;;
37517;SDS011;23366;52.498;13.446;2023-05-10T09:02:58;1.00;;;0.80;;
37517;SDS011;23366;52.498;13.446;2023-05-10T09:05:24;2.63;;;1.10;;
37517;SDS011;23366;52.498;13.446;2023-05-10T09:07:50;2.65;;;1.10;;
37517;SDS011;23366;52.498;13.446;2023-05-10T09:10:15;1.48;;;1.00;;
37517;SDS011;23366;52.498;13.446;2023-05-10T09:12:41;3.55;;;0.90;;
37517;SDS011;23366;52.498;13.446;2023-05-10T09:15:08;2.55;;;1.35;;
37517;SDS011;23366;52.498;13.446;2023-05-10T09:17:34;0.63;;;0.63;;
37517;SDS011;23366;52.498;13.446;2023-05-10T09:20:02;2.17;;;1.80;;
37517;SDS011;23366;52.498;13.446;2023-05-10T09:22:29;2.65;;;1.00;;
37517;SDS011;23366;52.498;13.446;2023-05-10T09:25:11;1.20;;;0.98;;
37517;SDS011;23366;52.498;13.446;2023-05-10T09:27:38;3.33;;;1.30;;
37517;SDS011;23366;52.498;13.446;2023-05-10T09:30:31;4.13;;;1.33;;
37517;SDS011;23366;52.498;13.446;2023-05-10T09:32:57;2.25;;;1.48;;
37517;SDS011;23366;52.498;13.446;2023-05-10T09:35:25;2.97;;;1.00;;
37517;SDS011;23366;52.498;13.446;2023-05-10T09:37:53;1.67;;;1.15;;
37517;SDS011;23366;52.498;13.446;2023-05-10T09:40:21;3.20;;;1.48;;
37517;SDS011;23366;52.498;13.446;2023-05-10T09:45:22;4.43;;;1.67;;
37517;SDS011;23366;52.498;13.446;2023-05-10T09:47:49;3.33;;;1.67;;
37517;SDS011;23366;52.498;13.446;2023-05-10T09:50:15;2.08;;;1.50;;
37517;SDS011;23366;52.498;13.446;2023-05-10T09:55:18;1.65;;;1.15;;
37517;SDS011;23366;52.498;13.446;2023-05-10T09:57:46;1.85;;;1.25;;
37517;SDS011;23366;52.498;13.446;2023-05-10T10:00:19;2.47;;;1.50;;
37517;SDS011;23366;52.498;13.446;2023-05-10T10:02:53;1.70;;;1.30;;
37517;SDS011;23366;52.498;13.446;2023-05-10T10:05:20;4.95;;;1.30;;
37517;SDS011;23366;52.498;13.446;2023-05-10T10:07:46;2.28;;;1.42;;
37517;SDS011;23366;52.498;13.446;2023-05-10T10:10:14;2.28;;;1.00;;
37517;SDS011;23366;52.498;13.446;2023-05-10T10:12:39;1.77;;;1.10;;
37517;SDS011;23366;52.498;13.446;2023-05-10T10:15:06;1.95;;;1.25;;
37517;SDS011;23366;52.498;13.446;2023-05-10T10:17:33;2.47;;;1.70;;
37517;SDS011;23366;52.498;13.446;2023-05-10T10:20:02;2.25;;;1.42;;
37517;SDS011;23366;52.498;13.446;2023-05-10T10:22:28;3.40;;;1.58;;
37517;SDS011;23366;52.498;13.446;2023-05-10T10:24:53;1.52;;;1.20;;
37517;SDS011;23366;52.498;13.446;2023-05-10T10:30:06;2.38;;;1.52;;
37517;SDS011;23366;52.498;13.446;2023-05-10T10:32:38;1.63;;;1.23;;
37517;SDS011;23366;52.498;13.446;2023-05-10T10:35:27;2.55;;;1.25;;
37517;SDS011;23366;52.498;13.446;2023-05-10T10:37:56;4.20;;;1.38;;
37517;SDS011;23366;52.498;13.446;2023-05-10T10:40:32;1.73;;;1.17;;
37517;SDS011;23366;52.498;13.446;2023-05-10T10:43:20;4.53;;;1.40;;
37517;SDS011;23366;52.498;13.446;2023-05-10T10:48:50;1.48;;;1.30;;
37517;SDS011;23366;52.498;13.446;2023-05-10T10:51:38;3.70;;;2.35;;
37517;SDS011;23366;52.498;13.446;2023-05-10T10:54:10;2.22;;;1.08;;
37517;SDS011;23366;52.498;13.446;2023-05-10T10:56:36;4.15;;;1.52;;
37517;SDS011;23366;52.498;13.446;2023-05-10T10:59:02;3.25;;;1.90;;
37517;SDS011;23366;52.498;13.446;2023-05-10T11:01:32;1.23;;;0.88;;
37517;SDS011;23366;52.498;13.446;2023-05-10T11:06:29;3.55;;;1.63;;
37517;SDS011;23366;52.498;13.446;2023-05-10T11:08:59;3.00;;;1.92;;
37517;SDS011;23366;52.498;13.446;2023-05-10T11:13:55;7.50;;;1.50;;
37517;SDS011;23366;52.498;13.446;2023-05-10T11:16:28;1.38;;;1.15;;
37517;SDS011;23366;52.498;13.446;2023-05-10T11:19:08;2.88;;;1.70;;
37517;SDS011;23366;52.498;13.446;2023-05-10T11:21:45;2.15;;;1.45;;
37517;SDS011;23366;52.498;13.446;2023-05-10T11:24:13;1.90;;;1.02;;
37517;SDS011;23366;52.498;13.446;2023-05-10T11:26:40;3.60;;;1.60;;
37517;SDS011;23366;52.498;13.446;2023-05-10T11:29:05;2.10;;;1.45;;
37517;SDS011;23366;52.498;13.446;2023-05-10T11:31:31;1.98;;;1.50;;
37517;SDS011;23366;52.498;13.446;2023-05-10T11:33:57;3.35;;;1.65;;
37517;SDS011;23366;52.498;13.446;2023-05-10T11:36:25;2.75;;;1.63;;
37517;SDS011;23366;52.498;13.446;2023-05-10T11:38:53;2.08;;;1.35;;
37517;SDS011;23366;52.498;13.446;2023-05-10T11:41:20;1.92;;;1.23;;
37517;SDS011;23366;52.498;13.446;2023-05-10T11:43:51;2.10;;;1.23;;
37517;SDS011;23366;52.498;13.446;2023-05-10T11:46:19;5.35;;;1.75;;
37517;SDS011;23366;52.498;13.446;2023-05-10T11:48:50;2.30;;;1.27;;
37517;SDS011;23366;52.498;13.446;2023-05-10T11:51:21;3.45;;;1.33;;
37517;SDS011;23366;52.498;13.446;2023-05-10T11:53:48;2.20;;;1.50;;
37517;SDS011;23366;52.498;13.446;2023-05-10T11:56:15;1.55;;;1.45;;
37517;SDS011;23366;52.498;13.446;2023-05-10T11:58:41;2.50;;;1.35;;
37517;SDS011;23366;52.498;13.446;2023-05-10T12:01:07;3.70;;;1.58;;
37517;SDS011;23366;52.498;13.446;2023-05-10T12:03:34;3.88;;;1.50;;
37517;SDS011;23366;52.498;13.446;2023-05-10T12:05:59;1.00;;;0.90;;
37517;SDS011;23366;52.498;13.446;2023-05-10T12:08:26;1.70;;;1.23;;
37517;SDS011;23366;52.498;13.446;2023-05-10T12:10:53;1.90;;;1.00;;
37517;SDS011;23366;52.498;13.446;2023-05-10T12:13:29;1.90;;;1.45;;
37517;SDS011;23366;52.498;13.446;2023-05-10T12:15:57;1.98;;;1.30;;
37517;SDS011;23366;52.498;13.446;2023-05-10T12:18:23;3.70;;;1.38;;
37517;SDS011;23366;52.498;13.446;2023-05-10T12:20:51;4.15;;;1.75;;
37517;SDS011;23366;52.498;13.446;2023-05-10T12:23:20;1.20;;;1.02;;
37517;SDS011;23366;52.498;13.446;2023-05-10T12:25:46;3.92;;;1.30;;
37517;SDS011;23366;52.498;13.446;2023-05-10T12:28:11;2.47;;;1.48;;
37517;SDS011;23366;52.498;13.446;2023-05-10T12:30:37;2.05;;;1.27;;
37517;SDS011;23366;52.498;13.446;2023-05-10T12:35:33;2.95;;;2.33;;
37517;SDS011;23366;52.498;13.446;2023-05-10T12:41:02;1.15;;;1.05;;
37517;SDS011;23366;52.498;13.446;2023-05-10T12:43:32;2.50;;;1.30;;
37517;SDS011;23366;52.498;13.446;2023-05-10T12:46:04;2.72;;;1.30;;
37517;SDS011;23366;52.498;13.446;2023-05-10T12:48:38;1.80;;;1.35;;
37517;SDS011;23366;52.498;13.446;2023-05-10T12:51:05;1.50;;;0.95;;
37517;SDS011;23366;52.498;13.446;2023-05-10T12:53:34;3.40;;;1.85;;
37517;SDS011;23366;52.498;13.446;2023-05-10T12:56:00;5.50;;;2.55;;
37517;SDS011;23366;52.498;13.446;2023-05-10T12:58:25;1.50;;;1.10;;
37517;SDS011;23366;52.498;13.446;2023-05-10T13:00:51;3.05;;;1.65;;
37517;SDS011;23366;52.498;13.446;2023-05-10T13:03:17;1.63;;;0.93;;
37517;SDS011;23366;52.498;13.446;2023-05-10T13:05:42;1.98;;;1.70;;
37517;SDS011;23366;52.498;13.446;2023-05-10T13:08:08;2.00;;;1.15;;
37517;SDS011;23366;52.498;13.446;2023-05-10T13:10:33;2.90;;;1.83;;
37517;SDS011;23366;52.498;13.446;2023-05-10T13:12:59;1.60;;;1.33;;
37517;SDS011;23366;52.498;13.446;2023-05-10T13:15:25;2.25;;;1.27;;
37517;SDS011;23366;52.498;13.446;2023-05-10T13:17:51;5.85;;;1.50;;
37517;SDS011;23366;52.498;13.446;2023-05-10T13:20:16;1.77;;;1.38;;
37517;SDS011;23366;52.498;13.446;2023-05-10T13:22:43;2.10;;;1.20;;
37517;SDS011;23366;52.498;13.446;2023-05-10T13:25:09;3.67;;;0.93;;
37517;SDS011;23366;52.498;13.446;2023-05-10T13:27:35;1.58;;;1.08;;
37517;SDS011;23366;52.498;13.446;2023-05-10T13:30:02;2.92;;;1.45;;
37517;SDS011;23366;52.498;13.446;2023-05-10T13:32:28;2.03;;;1.30;;
37517;SDS011;23366;52.498;13.446;2023-05-10T13:34:54;3.08;;;1.25;;
37517;SDS011;23366;52.498;13.446;2023-05-10T13:37:20;1.35;;;1.20;;
37517;SDS011;23366;52.498;13.446;2023-05-10T13:39:46;1.98;;;1.08;;
37517;SDS011;23366;52.498;13.446;2023-05-10T13:42:11;3.75;;;1.23;;
37517;SDS011;23366;52.498;13.446;2023-05-10T13:44:38;1.52;;;1.20;;
37517;SDS011;23366;52.498;13.446;2023-05-10T13:47:05;2.50;;;1.00;;
37517;SDS011;23366;52.498;13.446;2023-05-10T13:49:30;1.33;;;1.13;;
37517;SDS011;23366;52.498;13.446;2023-05-10T13:51:56;1.83;;;1.33;;
37517;SDS011;23366;52.498;13.446;2023-05-10T13:54:21;3.90;;;2.33;;
37517;SDS011;23366;52.498;13.446;2023-05-10T13:56:48;2.90;;;1.50;;
37517;SDS011;23366;52.498;13.446;2023-05-10T13:59:13;3.17;;;1.55;;
37517;SDS011;23366;52.498;13.446;2023-05-10T14:01:40;2.40;;;1.30;;
37517;SDS011;23366;52.498;13.446;2023-05-10T14:04:06;1.77;;;1.02;;
37517;SDS011;23366;52.498;13.446;2023-05-10T14:06:34;1.63;;;0.73;;
37517;SDS011;23366;52.498;13.446;2023-05-10T14:09:03;2.83;;;1.55;;
37517;SDS011;23366;52.498;13.446;2023-05-10T14:11:28;2.25;;;0.98;;
37517;SDS011;23366;52.498;13.446;2023-05-10T14:13:54;3.63;;;1.63;;
37517;SDS011;23366;52.498;13.446;2023-05-10T14:16:20;0.80;;;0.77;;
37517;SDS011;23366;52.498;13.446;2023-05-10T14:18:46;1.42;;;0.93;;
37517;SDS011;23366;52.498;13.446;2023-05-10T14:21:11;2.58;;;1.65;;
37517;SDS011;23366;52.498;13.446;2023-05-10T14:23:37;2.15;;;1.30;;
37517;SDS011;23366;52.498;13.446;2023-05-10T14:26:03;2.33;;;1.33;;
37517;SDS011;23366;52.498;13.446;2023-05-10T14:28:28;3.60;;;1.30;;
37517;SDS011;23366;52.498;13.446;2023-05-10T14:30:54;0.80;;;0.70;;
37517;SDS011;23366;52.498;13.446;2023-05-10T14:33:19;1.13;;;0.80;;
37517;SDS011;23366;52.498;13.446;2023-05-10T14:35:45;2.55;;;0.80;;
37517;SDS011;23366;52.498;13.446;2023-05-10T14:38:11;2.47;;;1.25;;
37517;SDS011;23366;52.498;13.446;2023-05-10T14:40:37;1.50;;;1.17;;
37517;SDS011;23366;52.498;13.446;2023-05-10T14:43:03;1.67;;;1.23;;
37517;SDS011;23366;52.498;13.446;2023-05-10T14:45:28;1.52;;;1.10;;
37517;SDS011;23366;52.498;13.446;2023-05-10T14:47:54;1.33;;;0.90;;
37517;SDS011;23366;52.498;13.446;2023-05-10T14:50:19;1.50;;;1.30;;
37517;SDS011;23366;52.498;13.446;2023-05-10T14:52:44;1.92;;;1.33;;
37517;SDS011;23366;52.498;13.446;2023-05-10T14:55:10;1.30;;;1.20;;
37517;SDS011;23366;52.498;13.446;2023-05-10T14:57:35;1.17;;;0.88;;
37517;SDS011;23366;52.498;13.446;2023-05-10T15:00:02;1.75;;;1.02;;
37517;SDS011;23366;52.498;13.446;2023-05-10T15:02:28;2.05;;;0.93;;